sensor_id;sensor_type;location;lat;lon;timestamp;P1;durP1;ratioP1;P2;durP2;ratioP2
76795;SDS011;65745;50.278;18.192;2023-08-01T00:02:18;11.00;;;7.70;;
76795;SDS011;65745;50.278;18.192;2023-08-01T00:04:50;12.40;;;7.10;;
76795;SDS011;65745;50.278;18.192;2023-08-01T00:07:22;13.60;;;7.60;;
76795;SDS011;65745;50.278;18.192;2023-08-01T00:09:55;12.10;;;6.90;;
76795;SDS011;65745;50.278;18.192;2023-08-01T00:12:27;14.70;;;8.40;;
76795;SDS011;65745;50.278;18.192;2023-08-01T00:14:59;15.60;;;8.30;;
76795;SDS011;65745;50.278;18.192;2023-08-01T00:17:32;12.20;;;6.40;;
76795;SDS011;65745;50.278;18.192;2023-08-01T00:20:05;9.80;;;6.60;;
76795;SDS011;65745;50.278;18.192;2023-08-01T00:22:38;13.20;;;7.40;;
76795;SDS011;65745;50.278;18.192;2023-08-01T00:25:10;17.10;;;8.30;;
76795;SDS011;65745;50.278;18.192;2023-08-01T00:27:43;9.40;;;7.20;;
76795;SDS011;65745;50.278;18.192;2023-08-01T00:30:15;9.90;;;7.40;;
76795;SDS011;65745;50.278;18.192;2023-08-01T00:32:47;12.30;;;6.90;;
76795;SDS011;65745;50.278;18.192;2023-08-01T00:35:19;10.40;;;6.40;;
76795;SDS011;65745;50.278;18.192;2023-08-01T00:37:51;7.70;;;4.90;;
76795;SDS011;65745;50.278;18.192;2023-08-01T00:40:23;9.80;;;5.20;;
76795;SDS011;65745;50.278;18.192;2023-08-01T00:42:59;10.20;;;4.70;;
76795;SDS011;65745;50.278;18.192;2023-08-01T00:45:31;8.50;;;5.10;;
76795;SDS011;65745;50.278;18.192;2023-08-01T00:48:04;7.60;;;5.00;;
76795;SDS011;65745;50.278;18.192;2023-08-01T00:50:36;8.20;;;4.80;;
76795;SDS011;65745;50.278;18.192;2023-08-01T00:53:09;8.80;;;5.10;;
76795;SDS011;65745;50.278;18.192;2023-08-01T00:55:42;7.20;;;5.30;;
76795;SDS011;65745;50.278;18.192;2023-08-01T00:58:15;6.90;;;4.90;;
76795;SDS011;65745;50.278;18.192;2023-08-01T01:00:47;9.10;;;5.70;;
76795;SDS011;65745;50.278;18.192;2023-08-01T01:03:19;6.90;;;5.00;;
76795;SDS011;65745;50.278;18.192;2023-08-01T01:05:56;11.50;;;4.80;;
76795;SDS011;65745;50.278;18.192;2023-08-01T01:08:38;8.30;;;4.80;;
76795;SDS011;65745;50.278;18.192;2023-08-01T01:11:10;8.30;;;5.30;;
76795;SDS011;65745;50.278;18.192;2023-08-01T01:13:43;7.90;;;5.80;;
76795;SDS011;65745;50.278;18.192;2023-08-01T01:16:15;8.70;;;5.40;;
76795;SDS011;65745;50.278;18.192;2023-08-01T01:18:47;12.60;;;6.80;;
76795;SDS011;65745;50.278;18.192;2023-08-01T01:21:32;11.10;;;7.10;;
76795;SDS011;65745;50.278;18.192;2023-08-01T01:24:43;7.80;;;6.00;;
76795;SDS011;65745;50.278;18.192;2023-08-01T01:27:34;6.00;;;5.10;;
76795;SDS011;65745;50.278;18.192;2023-08-01T01:30:08;8.30;;;5.80;;
76795;SDS011;65745;50.278;18.192;2023-08-01T01:32:40;12.60;;;5.60;;
76795;SDS011;65745;50.278;18.192;2023-08-01T01:35:13;6.80;;;4.90;;
76795;SDS011;65745;50.278;18.192;2023-08-01T01:37:45;8.30;;;5.00;;
76795;SDS011;65745;50.278;18.192;2023-08-01T01:40:17;11.00;;;5.30;;
76795;SDS011;65745;50.278;18.192;2023-08-01T01:42:50;7.30;;;4.80;;
76795;SDS011;65745;50.278;18.192;2023-08-01T01:45:22;7.50;;;5.50;;
76795;SDS011;65745;50.278;18.192;2023-08-01T01:47:54;8.50;;;4.90;;
76795;SDS011;65745;50.278;18.192;2023-08-01T01:50:26;6.40;;;4.80;;
76795;SDS011;65745;50.278;18.192;2023-08-01T01:52:58;9.90;;;6.10;;
76795;SDS011;65745;50.278;18.192;2023-08-01T01:55:30;6.70;;;5.20;;
76795;SDS011;65745;50.278;18.192;2023-08-01T01:58:04;7.60;;;4.70;;
76795;SDS011;65745;50.278;18.192;2023-08-01T02:00:36;5.80;;;5.00;;
76795;SDS011;65745;50.278;18.192;2023-08-01T02:03:08;5.90;;;5.10;;
76795;SDS011;65745;50.278;18.192;2023-08-01T02:05:42;8.50;;;5.10;;
76795;SDS011;65745;50.278;18.192;2023-08-01T02:08:15;5.40;;;4.30;;
76795;SDS011;65745;50.278;18.192;2023-08-01T02:10:49;6.10;;;4.00;;
76795;SDS011;65745;50.278;18.192;2023-08-01T02:13:21;6.70;;;5.20;;
76795;SDS011;65745;50.278;18.192;2023-08-01T02:15:53;7.40;;;4.70;;
76795;SDS011;65745;50.278;18.192;2023-08-01T02:18:25;10.60;;;6.20;;
76795;SDS011;65745;50.278;18.192;2023-08-01T02:20:57;10.30;;;6.30;;
76795;SDS011;65745;50.278;18.192;2023-08-01T02:23:29;6.20;;;5.00;;
76795;SDS011;65745;50.278;18.192;2023-08-01T02:26:02;7.30;;;4.70;;
76795;SDS011;65745;50.278;18.192;2023-08-01T02:28:37;7.00;;;4.90;;
76795;SDS011;65745;50.278;18.192;2023-08-01T02:31:09;9.00;;;4.80;;
76795;SDS011;65745;50.278;18.192;2023-08-01T02:33:41;7.50;;;5.00;;
76795;SDS011;65745;50.278;18.192;2023-08-01T02:36:14;7.70;;;5.00;;
76795;SDS011;65745;50.278;18.192;2023-08-01T02:38:46;6.30;;;4.20;;
76795;SDS011;65745;50.278;18.192;2023-08-01T02:41:18;6.00;;;4.20;;
76795;SDS011;65745;50.278;18.192;2023-08-01T02:43:50;7.90;;;5.00;;
76795;SDS011;65745;50.278;18.192;2023-08-01T02:46:22;8.80;;;5.70;;
76795;SDS011;65745;50.278;18.192;2023-08-01T02:48:57;9.00;;;5.10;;
76795;SDS011;65745;50.278;18.192;2023-08-01T02:51:29;6.90;;;4.40;;
76795;SDS011;65745;50.278;18.192;2023-08-01T02:54:02;6.30;;;4.80;;
76795;SDS011;65745;50.278;18.192;2023-08-01T02:56:34;6.60;;;4.90;;
76795;SDS011;65745;50.278;18.192;2023-08-01T02:59:11;6.10;;;4.60;;
76795;SDS011;65745;50.278;18.192;2023-08-01T03:01:43;6.60;;;4.20;;
76795;SDS011;65745;50.278;18.192;2023-08-01T03:04:15;6.10;;;5.10;;
76795;SDS011;65745;50.278;18.192;2023-08-01T03:06:52;5.70;;;4.70;;
76795;SDS011;65745;50.278;18.192;2023-08-01T03:09:24;5.80;;;4.30;;
76795;SDS011;65745;50.278;18.192;2023-08-01T03:11:56;6.20;;;4.70;;
76795;SDS011;65745;50.278;18.192;2023-08-01T03:14:28;9.90;;;6.40;;
76795;SDS011;65745;50.278;18.192;2023-08-01T03:17:01;8.80;;;4.80;;
76795;SDS011;65745;50.278;18.192;2023-08-01T03:19:33;8.70;;;4.50;;
76795;SDS011;65745;50.278;18.192;2023-08-01T03:22:05;8.10;;;5.20;;
76795;SDS011;65745;50.278;18.192;2023-08-01T03:24:37;6.50;;;4.50;;
76795;SDS011;65745;50.278;18.192;2023-08-01T03:27:09;6.70;;;5.00;;
76795;SDS011;65745;50.278;18.192;2023-08-01T03:29:42;7.80;;;4.60;;
76795;SDS011;65745;50.278;18.192;2023-08-01T03:32:14;4.70;;;3.80;;
76795;SDS011;65745;50.278;18.192;2023-08-01T03:34:46;7.50;;;4.50;;
76795;SDS011;65745;50.278;18.192;2023-08-01T03:37:18;5.90;;;4.20;;
76795;SDS011;65745;50.278;18.192;2023-08-01T03:39:50;7.30;;;4.30;;
76795;SDS011;65745;50.278;18.192;2023-08-01T03:42:22;6.00;;;4.40;;
76795;SDS011;65745;50.278;18.192;2023-08-01T03:44:54;6.50;;;4.50;;
76795;SDS011;65745;50.278;18.192;2023-08-01T03:47:26;6.80;;;4.40;;
76795;SDS011;65745;50.278;18.192;2023-08-01T03:49:58;5.00;;;4.00;;
76795;SDS011;65745;50.278;18.192;2023-08-01T03:52:30;7.30;;;4.30;;
76795;SDS011;65745;50.278;18.192;2023-08-01T03:55:03;7.20;;;4.20;;
76795;SDS011;65745;50.278;18.192;2023-08-01T03:57:36;7.40;;;4.50;;
76795;SDS011;65745;50.278;18.192;2023-08-01T04:00:09;5.40;;;3.70;;
76795;SDS011;65745;50.278;18.192;2023-08-01T04:02:45;5.70;;;4.00;;
76795;SDS011;65745;50.278;18.192;2023-08-01T04:05:19;7.00;;;4.00;;
76795;SDS011;65745;50.278;18.192;2023-08-01T04:07:53;5.60;;;4.00;;
76795;SDS011;65745;50.278;18.192;2023-08-01T04:10:25;5.90;;;4.50;;
76795;SDS011;65745;50.278;18.192;2023-08-01T04:12:57;6.30;;;4.60;;
76795;SDS011;65745;50.278;18.192;2023-08-01T04:15:29;6.10;;;4.00;;
76795;SDS011;65745;50.278;18.192;2023-08-01T04:18:02;6.30;;;4.30;;
76795;SDS011;65745;50.278;18.192;2023-08-01T04:20:34;7.00;;;4.00;;
76795;SDS011;65745;50.278;18.192;2023-08-01T04:23:06;6.40;;;4.30;;
76795;SDS011;65745;50.278;18.192;2023-08-01T04:25:40;6.70;;;4.10;;
76795;SDS011;65745;50.278;18.192;2023-08-01T04:28:12;6.90;;;4.10;;
76795;SDS011;65745;50.278;18.192;2023-08-01T04:30:49;6.40;;;4.10;;
76795;SDS011;65745;50.278;18.192;2023-08-01T04:33:22;6.20;;;3.90;;
76795;SDS011;65745;50.278;18.192;2023-08-01T04:35:54;8.90;;;4.10;;
76795;SDS011;65745;50.278;18.192;2023-08-01T04:38:26;6.10;;;3.90;;
76795;SDS011;65745;50.278;18.192;2023-08-01T04:40:58;6.20;;;4.40;;
76795;SDS011;65745;50.278;18.192;2023-08-01T04:43:32;5.20;;;3.90;;
76795;SDS011;65745;50.278;18.192;2023-08-01T04:46:04;6.10;;;3.70;;
76795;SDS011;65745;50.278;18.192;2023-08-01T04:48:36;6.40;;;3.50;;
76795;SDS011;65745;50.278;18.192;2023-08-01T04:51:08;6.80;;;3.80;;
76795;SDS011;65745;50.278;18.192;2023-08-01T04:53:40;5.40;;;4.00;;
76795;SDS011;65745;50.278;18.192;2023-08-01T04:56:12;6.90;;;4.30;;
76795;SDS011;65745;50.278;18.192;2023-08-01T04:58:44;6.90;;;3.60;;
76795;SDS011;65745;50.278;18.192;2023-08-01T05:01:16;5.00;;;4.30;;
76795;SDS011;65745;50.278;18.192;2023-08-01T05:03:48;5.30;;;4.30;;
76795;SDS011;65745;50.278;18.192;2023-08-01T05:06:20;5.60;;;4.10;;
76795;SDS011;65745;50.278;18.192;2023-08-01T05:08:52;6.60;;;4.80;;
76795;SDS011;65745;50.278;18.192;2023-08-01T05:11:24;7.60;;;4.70;;
76795;SDS011;65745;50.278;18.192;2023-08-01T05:13:56;7.40;;;4.40;;
76795;SDS011;65745;50.278;18.192;2023-08-01T05:16:28;7.00;;;4.20;;
76795;SDS011;65745;50.278;18.192;2023-08-01T05:19:01;6.20;;;4.70;;
76795;SDS011;65745;50.278;18.192;2023-08-01T05:21:33;8.40;;;5.60;;
76795;SDS011;65745;50.278;18.192;2023-08-01T05:24:05;7.20;;;5.10;;
76795;SDS011;65745;50.278;18.192;2023-08-01T05:26:37;7.40;;;4.80;;
76795;SDS011;65745;50.278;18.192;2023-08-01T05:29:09;11.40;;;6.30;;
76795;SDS011;65745;50.278;18.192;2023-08-01T05:31:41;8.00;;;5.20;;
76795;SDS011;65745;50.278;18.192;2023-08-01T05:34:13;8.80;;;5.60;;
76795;SDS011;65745;50.278;18.192;2023-08-01T05:36:46;6.80;;;4.70;;
76795;SDS011;65745;50.278;18.192;2023-08-01T05:39:19;5.70;;;4.50;;
76795;SDS011;65745;50.278;18.192;2023-08-01T05:41:51;5.50;;;4.50;;
76795;SDS011;65745;50.278;18.192;2023-08-01T05:44:23;6.80;;;5.30;;
76795;SDS011;65745;50.278;18.192;2023-08-01T05:46:55;8.50;;;5.20;;
76795;SDS011;65745;50.278;18.192;2023-08-01T05:49:27;7.50;;;5.30;;
76795;SDS011;65745;50.278;18.192;2023-08-01T05:51:59;8.30;;;4.50;;
76795;SDS011;65745;50.278;18.192;2023-08-01T05:54:31;8.00;;;5.10;;
76795;SDS011;65745;50.278;18.192;2023-08-01T05:57:04;8.60;;;5.40;;
76795;SDS011;65745;50.278;18.192;2023-08-01T05:59:37;6.90;;;5.10;;
76795;SDS011;65745;50.278;18.192;2023-08-01T06:02:09;8.30;;;5.30;;
76795;SDS011;65745;50.278;18.192;2023-08-01T06:04:42;6.10;;;5.00;;
76795;SDS011;65745;50.278;18.192;2023-08-01T06:07:14;8.90;;;5.00;;
76795;SDS011;65745;50.278;18.192;2023-08-01T06:09:52;6.70;;;5.30;;
76795;SDS011;65745;50.278;18.192;2023-08-01T06:12:24;7.90;;;5.60;;
76795;SDS011;65745;50.278;18.192;2023-08-01T06:14:58;7.10;;;5.10;;
76795;SDS011;65745;50.278;18.192;2023-08-01T06:17:30;7.10;;;5.50;;
76795;SDS011;65745;50.278;18.192;2023-08-01T06:20:02;8.70;;;6.10;;
76795;SDS011;65745;50.278;18.192;2023-08-01T06:22:35;7.60;;;6.10;;
76795;SDS011;65745;50.278;18.192;2023-08-01T06:25:08;8.70;;;6.00;;
76795;SDS011;65745;50.278;18.192;2023-08-01T06:27:40;11.00;;;6.30;;
76795;SDS011;65745;50.278;18.192;2023-08-01T06:30:12;9.00;;;6.60;;
76795;SDS011;65745;50.278;18.192;2023-08-01T06:32:44;8.00;;;6.40;;
76795;SDS011;65745;50.278;18.192;2023-08-01T06:35:17;7.30;;;5.60;;
76795;SDS011;65745;50.278;18.192;2023-08-01T06:37:50;9.00;;;6.50;;
76795;SDS011;65745;50.278;18.192;2023-08-01T06:40:22;6.30;;;5.10;;
76795;SDS011;65745;50.278;18.192;2023-08-01T06:42:54;7.00;;;5.30;;
76795;SDS011;65745;50.278;18.192;2023-08-01T06:45:26;6.50;;;4.80;;
76795;SDS011;65745;50.278;18.192;2023-08-01T06:47:58;6.90;;;4.40;;
76795;SDS011;65745;50.278;18.192;2023-08-01T06:50:31;5.90;;;4.40;;
76795;SDS011;65745;50.278;18.192;2023-08-01T06:53:03;7.00;;;5.40;;
76795;SDS011;65745;50.278;18.192;2023-08-01T06:55:35;6.60;;;5.00;;
76795;SDS011;65745;50.278;18.192;2023-08-01T06:58:07;6.40;;;4.70;;
76795;SDS011;65745;50.278;18.192;2023-08-01T07:00:39;6.00;;;5.40;;
76795;SDS011;65745;50.278;18.192;2023-08-01T07:03:11;6.50;;;5.70;;
76795;SDS011;65745;50.278;18.192;2023-08-01T07:05:43;6.00;;;5.10;;
76795;SDS011;65745;50.278;18.192;2023-08-01T07:08:16;8.10;;;6.50;;
76795;SDS011;65745;50.278;18.192;2023-08-01T07:10:48;6.70;;;5.60;;
76795;SDS011;65745;50.278;18.192;2023-08-01T07:13:20;7.40;;;4.90;;
76795;SDS011;65745;50.278;18.192;2023-08-01T07:15:54;6.90;;;5.40;;
76795;SDS011;65745;50.278;18.192;2023-08-01T07:18:26;7.80;;;6.10;;
76795;SDS011;65745;50.278;18.192;2023-08-01T07:21:02;7.60;;;5.80;;
76795;SDS011;65745;50.278;18.192;2023-08-01T07:23:34;7.60;;;6.20;;
76795;SDS011;65745;50.278;18.192;2023-08-01T07:26:06;7.10;;;5.70;;
76795;SDS011;65745;50.278;18.192;2023-08-01T07:28:39;7.80;;;5.70;;
76795;SDS011;65745;50.278;18.192;2023-08-01T07:31:11;8.40;;;5.50;;
76795;SDS011;65745;50.278;18.192;2023-08-01T07:33:44;8.30;;;6.30;;
76795;SDS011;65745;50.278;18.192;2023-08-01T07:36:16;10.40;;;7.00;;
76795;SDS011;65745;50.278;18.192;2023-08-01T07:38:48;9.90;;;6.10;;
76795;SDS011;65745;50.278;18.192;2023-08-01T07:41:20;8.10;;;5.40;;
76795;SDS011;65745;50.278;18.192;2023-08-01T07:43:52;7.40;;;6.20;;
76795;SDS011;65745;50.278;18.192;2023-08-01T07:46:24;5.50;;;5.00;;
76795;SDS011;65745;50.278;18.192;2023-08-01T07:48:56;6.60;;;4.70;;
76795;SDS011;65745;50.278;18.192;2023-08-01T07:51:29;6.40;;;4.60;;
76795;SDS011;65745;50.278;18.192;2023-08-01T07:54:03;4.60;;;3.90;;
76795;SDS011;65745;50.278;18.192;2023-08-01T07:56:35;6.10;;;4.60;;
76795;SDS011;65745;50.278;18.192;2023-08-01T07:59:07;4.60;;;4.10;;
76795;SDS011;65745;50.278;18.192;2023-08-01T08:01:40;5.90;;;4.10;;
76795;SDS011;65745;50.278;18.192;2023-08-01T08:04:12;5.60;;;4.60;;
76795;SDS011;65745;50.278;18.192;2023-08-01T08:06:44;4.80;;;4.00;;
76795;SDS011;65745;50.278;18.192;2023-08-01T08:09:16;4.90;;;4.40;;
76795;SDS011;65745;50.278;18.192;2023-08-01T08:11:49;6.10;;;4.90;;
76795;SDS011;65745;50.278;18.192;2023-08-01T08:14:21;5.50;;;4.50;;
76795;SDS011;65745;50.278;18.192;2023-08-01T08:16:53;8.90;;;4.90;;
76795;SDS011;65745;50.278;18.192;2023-08-01T08:19:25;5.00;;;4.50;;
76795;SDS011;65745;50.278;18.192;2023-08-01T08:21:58;5.90;;;5.00;;
76795;SDS011;65745;50.278;18.192;2023-08-01T08:24:30;6.00;;;5.10;;
76795;SDS011;65745;50.278;18.192;2023-08-01T08:27:06;7.00;;;5.80;;
76795;SDS011;65745;50.278;18.192;2023-08-01T08:29:38;6.10;;;5.30;;
76795;SDS011;65745;50.278;18.192;2023-08-01T08:32:10;5.50;;;4.50;;
76795;SDS011;65745;50.278;18.192;2023-08-01T08:34:45;7.80;;;5.00;;
76795;SDS011;65745;50.278;18.192;2023-08-01T08:37:17;7.20;;;5.40;;
76795;SDS011;65745;50.278;18.192;2023-08-01T08:39:49;7.50;;;5.20;;
76795;SDS011;65745;50.278;18.192;2023-08-01T08:42:21;6.80;;;5.70;;
76795;SDS011;65745;50.278;18.192;2023-08-01T08:44:54;6.90;;;5.50;;
76795;SDS011;65745;50.278;18.192;2023-08-01T08:47:28;8.10;;;5.30;;
76795;SDS011;65745;50.278;18.192;2023-08-01T08:50:06;7.00;;;4.70;;
76795;SDS011;65745;50.278;18.192;2023-08-01T08:52:39;5.90;;;4.30;;
76795;SDS011;65745;50.278;18.192;2023-08-01T08:55:11;5.80;;;4.30;;
76795;SDS011;65745;50.278;18.192;2023-08-01T08:57:44;4.30;;;3.60;;
76795;SDS011;65745;50.278;18.192;2023-08-01T09:00:20;4.50;;;3.60;;
76795;SDS011;65745;50.278;18.192;2023-08-01T09:02:53;4.40;;;4.00;;
76795;SDS011;65745;50.278;18.192;2023-08-01T09:05:26;8.50;;;4.00;;
76795;SDS011;65745;50.278;18.192;2023-08-01T09:08:03;4.80;;;4.10;;
76795;SDS011;65745;50.278;18.192;2023-08-01T09:10:41;5.10;;;3.90;;
76795;SDS011;65745;50.278;18.192;2023-08-01T09:13:13;4.50;;;3.60;;
76795;SDS011;65745;50.278;18.192;2023-08-01T09:15:45;5.90;;;4.00;;
76795;SDS011;65745;50.278;18.192;2023-08-01T09:18:18;5.10;;;3.40;;
76795;SDS011;65745;50.278;18.192;2023-08-01T09:20:50;5.90;;;4.00;;
76795;SDS011;65745;50.278;18.192;2023-08-01T09:23:24;5.50;;;4.10;;
76795;SDS011;65745;50.278;18.192;2023-08-01T09:25:56;6.90;;;4.50;;
76795;SDS011;65745;50.278;18.192;2023-08-01T09:28:28;4.90;;;3.50;;
76795;SDS011;65745;50.278;18.192;2023-08-01T09:31:01;6.10;;;3.70;;
76795;SDS011;65745;50.278;18.192;2023-08-01T09:33:39;5.20;;;4.00;;
76795;SDS011;65745;50.278;18.192;2023-08-01T09:36:11;5.40;;;3.90;;
76795;SDS011;65745;50.278;18.192;2023-08-01T09:38:59;6.10;;;3.60;;
76795;SDS011;65745;50.278;18.192;2023-08-01T09:41:32;6.10;;;4.00;;
76795;SDS011;65745;50.278;18.192;2023-08-01T09:44:04;4.10;;;3.20;;
76795;SDS011;65745;50.278;18.192;2023-08-01T09:46:36;5.50;;;4.20;;
76795;SDS011;65745;50.278;18.192;2023-08-01T09:49:09;4.50;;;3.50;;
76795;SDS011;65745;50.278;18.192;2023-08-01T09:51:49;5.30;;;3.70;;
76795;SDS011;65745;50.278;18.192;2023-08-01T09:54:21;4.90;;;3.60;;
76795;SDS011;65745;50.278;18.192;2023-08-01T09:56:54;4.80;;;3.50;;
76795;SDS011;65745;50.278;18.192;2023-08-01T09:59:28;5.40;;;4.30;;
76795;SDS011;65745;50.278;18.192;2023-08-01T10:02:03;6.00;;;3.80;;
76795;SDS011;65745;50.278;18.192;2023-08-01T10:07:17;5.30;;;3.90;;
76795;SDS011;65745;50.278;18.192;2023-08-01T10:09:55;6.40;;;3.90;;
76795;SDS011;65745;50.278;18.192;2023-08-01T10:12:28;4.70;;;3.90;;
76795;SDS011;65745;50.278;18.192;2023-08-01T10:15:02;7.50;;;3.90;;
76795;SDS011;65745;50.278;18.192;2023-08-01T10:17:39;5.40;;;4.20;;
76795;SDS011;65745;50.278;18.192;2023-08-01T10:20:12;7.70;;;4.20;;
76795;SDS011;65745;50.278;18.192;2023-08-01T10:22:46;5.80;;;4.00;;
76795;SDS011;65745;50.278;18.192;2023-08-01T10:25:20;4.50;;;3.60;;
76795;SDS011;65745;50.278;18.192;2023-08-01T10:28:05;5.50;;;4.10;;
76795;SDS011;65745;50.278;18.192;2023-08-01T10:30:37;5.00;;;4.10;;
76795;SDS011;65745;50.278;18.192;2023-08-01T10:33:09;4.80;;;3.60;;
76795;SDS011;65745;50.278;18.192;2023-08-01T10:35:43;6.10;;;4.10;;
76795;SDS011;65745;50.278;18.192;2023-08-01T10:38:16;4.40;;;3.90;;
76795;SDS011;65745;50.278;18.192;2023-08-01T10:40:48;4.70;;;3.70;;
76795;SDS011;65745;50.278;18.192;2023-08-01T10:43:21;6.20;;;3.90;;
76795;SDS011;65745;50.278;18.192;2023-08-01T10:46:03;5.00;;;3.70;;
76795;SDS011;65745;50.278;18.192;2023-08-01T10:48:36;6.80;;;3.70;;
76795;SDS011;65745;50.278;18.192;2023-08-01T10:51:19;5.10;;;4.00;;
76795;SDS011;65745;50.278;18.192;2023-08-01T10:53:52;5.40;;;3.90;;
76795;SDS011;65745;50.278;18.192;2023-08-01T10:56:24;4.50;;;3.10;;
76795;SDS011;65745;50.278;18.192;2023-08-01T10:58:56;4.00;;;3.40;;
76795;SDS011;65745;50.278;18.192;2023-08-01T11:01:29;4.80;;;3.40;;
76795;SDS011;65745;50.278;18.192;2023-08-01T11:04:01;5.70;;;4.10;;
76795;SDS011;65745;50.278;18.192;2023-08-01T11:06:47;5.10;;;3.50;;
76795;SDS011;65745;50.278;18.192;2023-08-01T11:09:20;4.10;;;3.30;;
76795;SDS011;65745;50.278;18.192;2023-08-01T11:11:54;5.10;;;4.00;;
76795;SDS011;65745;50.278;18.192;2023-08-01T11:14:28;5.40;;;4.00;;
76795;SDS011;65745;50.278;18.192;2023-08-01T11:17:01;4.40;;;3.40;;
76795;SDS011;65745;50.278;18.192;2023-08-01T11:19:34;5.20;;;3.80;;
76795;SDS011;65745;50.278;18.192;2023-08-01T11:22:08;4.30;;;3.10;;
76795;SDS011;65745;50.278;18.192;2023-08-01T11:24:40;5.80;;;3.70;;
76795;SDS011;65745;50.278;18.192;2023-08-01T11:27:21;4.60;;;3.40;;
76795;SDS011;65745;50.278;18.192;2023-08-01T11:29:54;4.70;;;3.20;;
76795;SDS011;65745;50.278;18.192;2023-08-01T11:32:34;4.50;;;3.30;;
76795;SDS011;65745;50.278;18.192;2023-08-01T11:35:07;4.60;;;3.70;;
76795;SDS011;65745;50.278;18.192;2023-08-01T11:37:46;5.10;;;3.90;;
76795;SDS011;65745;50.278;18.192;2023-08-01T11:40:20;5.00;;;3.30;;
76795;SDS011;65745;50.278;18.192;2023-08-01T11:42:57;5.30;;;3.30;;
76795;SDS011;65745;50.278;18.192;2023-08-01T11:45:29;4.70;;;3.70;;
76795;SDS011;65745;50.278;18.192;2023-08-01T11:48:02;4.40;;;3.60;;
76795;SDS011;65745;50.278;18.192;2023-08-01T11:50:35;5.10;;;3.70;;
76795;SDS011;65745;50.278;18.192;2023-08-01T11:53:16;5.30;;;3.70;;
76795;SDS011;65745;50.278;18.192;2023-08-01T11:55:49;5.20;;;3.80;;
76795;SDS011;65745;50.278;18.192;2023-08-01T11:58:29;5.50;;;4.10;;
76795;SDS011;65745;50.278;18.192;2023-08-01T12:01:04;5.40;;;3.50;;
76795;SDS011;65745;50.278;18.192;2023-08-01T12:03:45;5.00;;;3.60;;
76795;SDS011;65745;50.278;18.192;2023-08-01T12:06:20;5.50;;;3.60;;
76795;SDS011;65745;50.278;18.192;2023-08-01T12:08:53;5.40;;;3.50;;
76795;SDS011;65745;50.278;18.192;2023-08-01T12:11:36;5.30;;;3.90;;
76795;SDS011;65745;50.278;18.192;2023-08-01T12:14:09;5.70;;;3.60;;
76795;SDS011;65745;50.278;18.192;2023-08-01T12:16:45;4.80;;;3.70;;
76795;SDS011;65745;50.278;18.192;2023-08-01T12:19:17;5.60;;;3.50;;
76795;SDS011;65745;50.278;18.192;2023-08-01T12:21:51;5.90;;;3.70;;
76795;SDS011;65745;50.278;18.192;2023-08-01T12:24:23;5.20;;;3.60;;
76795;SDS011;65745;50.278;18.192;2023-08-01T12:26:55;5.80;;;4.10;;
76795;SDS011;65745;50.278;18.192;2023-08-01T12:29:28;5.20;;;3.50;;
76795;SDS011;65745;50.278;18.192;2023-08-01T12:32:00;5.00;;;3.80;;
76795;SDS011;65745;50.278;18.192;2023-08-01T12:34:33;5.00;;;3.50;;
76795;SDS011;65745;50.278;18.192;2023-08-01T12:37:06;5.00;;;3.50;;
76795;SDS011;65745;50.278;18.192;2023-08-01T12:39:38;4.00;;;3.00;;
76795;SDS011;65745;50.278;18.192;2023-08-01T12:42:10;5.10;;;3.50;;
76795;SDS011;65745;50.278;18.192;2023-08-01T12:44:42;7.40;;;3.60;;
76795;SDS011;65745;50.278;18.192;2023-08-01T12:47:15;4.90;;;4.20;;
76795;SDS011;65745;50.278;18.192;2023-08-01T12:49:47;6.40;;;3.50;;
76795;SDS011;65745;50.278;18.192;2023-08-01T12:52:23;4.40;;;3.10;;
76795;SDS011;65745;50.278;18.192;2023-08-01T12:54:55;5.30;;;3.50;;
76795;SDS011;65745;50.278;18.192;2023-08-01T12:57:27;5.10;;;3.00;;
76795;SDS011;65745;50.278;18.192;2023-08-01T12:59:59;3.70;;;3.00;;
76795;SDS011;65745;50.278;18.192;2023-08-01T13:02:32;4.20;;;2.80;;
76795;SDS011;65745;50.278;18.192;2023-08-01T13:05:05;4.50;;;3.20;;
76795;SDS011;65745;50.278;18.192;2023-08-01T13:07:38;4.20;;;2.90;;
76795;SDS011;65745;50.278;18.192;2023-08-01T13:10:11;4.60;;;3.00;;
76795;SDS011;65745;50.278;18.192;2023-08-01T13:12:43;4.50;;;3.00;;
76795;SDS011;65745;50.278;18.192;2023-08-01T13:15:17;4.10;;;2.90;;
76795;SDS011;65745;50.278;18.192;2023-08-01T13:17:49;3.30;;;2.40;;
76795;SDS011;65745;50.278;18.192;2023-08-01T13:20:21;4.30;;;3.40;;
76795;SDS011;65745;50.278;18.192;2023-08-01T13:22:57;4.70;;;3.00;;
76795;SDS011;65745;50.278;18.192;2023-08-01T13:25:30;4.00;;;2.50;;
76795;SDS011;65745;50.278;18.192;2023-08-01T13:28:02;4.30;;;2.60;;
76795;SDS011;65745;50.278;18.192;2023-08-01T13:30:34;3.30;;;2.60;;
76795;SDS011;65745;50.278;18.192;2023-08-01T13:33:07;4.20;;;3.00;;
76795;SDS011;65745;50.278;18.192;2023-08-01T13:35:39;3.50;;;2.50;;
76795;SDS011;65745;50.278;18.192;2023-08-01T13:38:11;3.40;;;2.70;;
76795;SDS011;65745;50.278;18.192;2023-08-01T13:40:43;4.10;;;2.70;;
76795;SDS011;65745;50.278;18.192;2023-08-01T13:43:15;4.10;;;2.70;;
76795;SDS011;65745;50.278;18.192;2023-08-01T13:45:47;3.60;;;2.60;;
76795;SDS011;65745;50.278;18.192;2023-08-01T13:48:22;3.70;;;2.30;;
76795;SDS011;65745;50.278;18.192;2023-08-01T13:50:58;2.90;;;2.50;;
76795;SDS011;65745;50.278;18.192;2023-08-01T13:53:31;4.70;;;2.80;;
76795;SDS011;65745;50.278;18.192;2023-08-01T13:56:03;4.30;;;2.90;;
76795;SDS011;65745;50.278;18.192;2023-08-01T13:58:37;4.40;;;2.70;;
76795;SDS011;65745;50.278;18.192;2023-08-01T14:01:09;2.90;;;2.20;;
76795;SDS011;65745;50.278;18.192;2023-08-01T14:03:41;4.10;;;2.70;;
76795;SDS011;65745;50.278;18.192;2023-08-01T14:06:14;3.40;;;2.30;;
76795;SDS011;65745;50.278;18.192;2023-08-01T14:08:46;4.50;;;2.60;;
76795;SDS011;65745;50.278;18.192;2023-08-01T14:11:18;4.00;;;2.70;;
76795;SDS011;65745;50.278;18.192;2023-08-01T14:13:50;5.10;;;2.80;;
76795;SDS011;65745;50.278;18.192;2023-08-01T14:16:22;3.60;;;2.60;;
76795;SDS011;65745;50.278;18.192;2023-08-01T14:18:54;3.80;;;2.50;;
76795;SDS011;65745;50.278;18.192;2023-08-01T14:21:27;3.80;;;2.90;;
76795;SDS011;65745;50.278;18.192;2023-08-01T14:23:59;5.90;;;2.30;;
76795;SDS011;65745;50.278;18.192;2023-08-01T14:26:31;3.40;;;2.50;;
76795;SDS011;65745;50.278;18.192;2023-08-01T14:29:03;3.30;;;2.40;;
76795;SDS011;65745;50.278;18.192;2023-08-01T14:31:35;4.90;;;2.70;;
76795;SDS011;65745;50.278;18.192;2023-08-01T14:34:07;4.00;;;2.70;;
76795;SDS011;65745;50.278;18.192;2023-08-01T14:36:39;4.70;;;2.70;;
76795;SDS011;65745;50.278;18.192;2023-08-01T14:39:12;3.90;;;2.80;;
76795;SDS011;65745;50.278;18.192;2023-08-01T14:41:51;3.90;;;2.60;;
76795;SDS011;65745;50.278;18.192;2023-08-01T14:44:33;3.80;;;2.70;;
76795;SDS011;65745;50.278;18.192;2023-08-01T14:47:06;4.40;;;2.70;;
76795;SDS011;65745;50.278;18.192;2023-08-01T14:49:38;4.30;;;2.90;;
76795;SDS011;65745;50.278;18.192;2023-08-01T14:52:13;5.40;;;2.80;;
76795;SDS011;65745;50.278;18.192;2023-08-01T14:54:45;5.80;;;2.90;;
76795;SDS011;65745;50.278;18.192;2023-08-01T14:57:17;4.70;;;3.30;;
76795;SDS011;65745;50.278;18.192;2023-08-01T14:59:49;5.30;;;3.30;;
76795;SDS011;65745;50.278;18.192;2023-08-01T15:02:21;5.40;;;3.40;;
76795;SDS011;65745;50.278;18.192;2023-08-01T15:04:54;4.80;;;3.50;;
76795;SDS011;65745;50.278;18.192;2023-08-01T15:07:27;4.80;;;3.40;;
76795;SDS011;65745;50.278;18.192;2023-08-01T15:09:59;4.70;;;3.40;;
76795;SDS011;65745;50.278;18.192;2023-08-01T15:12:32;4.90;;;3.40;;